Huvudsida
METAR-TAF:

METAR-TAF

Flygplatser :

Basra International Airport

Basra, Irak

latitud: 30-32-56N, longitud: 47-39-45E, höjd: 1 m

Aktuellt väderrapport

Denna rapport gjordes för 42 minuter sedan, klockan 13:00 UTC
Vind 6 kt från nord/nordväst
Temperatur 29°C
Fuktighet 18%
Tryck 1016 hPa
Sikt 10 km eller mer
Inga moln under 1 500 m eller inga cumulonimbus

METAR: ORMM 121300Z 33006KT CAVOK 29/02 Q1016 NOSIG

Tid: 16:42 (13:42 UTC)

Väderprognos

Denna rapport gjordes för 3 timmar och 42 minuter sedan, klockan 10:00 UTC
Prognos gäller från 12 kl. 12 UTC till 13 kl. 12 UTC
Vind 4 kt från nord/nordväst
Sikt 10 km eller mer
Inga moln under 1 500 m eller inga cumulonimbus
Temporärt
från 13 kl. 02 UTC till 13 kl. 06 UTC
Sikt: 6000 m

TAF: ORMM 121000Z 1212/1312 34004KT CAVOK TEMPO 1302/1306 6000 NSC

Aktuella väderrapporter och prognoser från 4000 flygplatser (METAR- och TAF-rapporter).

De tillgängliga stationerna syns som gula och röda prickar på kartan.

För musen över prickarna för att se namnen på stationerna.

Klicka sedan för att få väderrapporter och prognoser.

För att ändra kartan: Klicka på de gröna knapparna med ett svart kors på för att zooma in; den gröna knappen med ett streck på för att zooma ut; eller på de gröna pilarna för angränsande kartor.


METAR-TAF: